Time;durP1;ratioP1;P1;durP2;ratioP2;P2;SDS_P1;SDS_P2;PMS_P1;PMS_P2;Temp;Humidity;BMP_temperature;BMP_pressure;BME280_temperature;BME280_humidity;BME280_pressure;Samples;Min_cycle;Max_cycle;Signal;HPM_P1;HPM_P2
2021/12/03 00:02:25;;;;;;;3.40;2.60;;;;;;;;;;5036417;28;20057;-45
2021/12/03 00:04:50;;;;;;;2.70;2.10;;;;;;;;;;5033815;28;20084;-46
2021/12/03 00:07:15;;;;;;;3.13;2.40;;;;;;;;;;5039495;28;20040;-46
2021/12/03 00:09:41;;;;;;;3.28;2.65;;;;;;;;;;5039669;28;20029;-46
2021/12/03 00:12:07;;;;;;;3.20;2.58;;;;;;;;;;5038856;28;20038;-46
2021/12/03 00:14:33;;;;;;;3.00;2.33;;;;;;;;;;5038839;28;20075;-46
2021/12/03 00:16:59;;;;;;;3.17;2.75;;;;;;;;;;5035058;28;20091;-47
2021/12/03 00:19:25;;;;;;;3.90;3.20;;;;;;;;;;5035190;28;20371;-48
2021/12/03 00:21:50;;;;;;;4.25;2.63;;;;;;;;;;5039472;28;20115;-47
2021/12/03 00:24:15;;;;;;;3.25;2.55;;;;;;;;;;5041612;28;20029;-51
2021/12/03 00:26:42;;;;;;;3.05;2.63;;;;;;;;;;5039270;28;20112;-48
2021/12/03 00:29:08;;;;;;;3.60;2.78;;;;;;;;;;5036775;28;20488;-48
2021/12/03 00:31:33;;;;;;;3.30;2.78;;;;;;;;;;5033089;28;20124;-47
2021/12/03 00:33:59;;;;;;;3.25;2.38;;;;;;;;;;5036722;28;20047;-48
2021/12/03 00:36:26;;;;;;;3.00;2.50;;;;;;;;;;5034378;28;20451;-47
2021/12/03 00:38:55;;;;;;;3.63;2.60;;;;;;;;;;5037607;28;20037;-48
2021/12/03 00:41:21;;;;;;;2.95;2.30;;;;;;;;;;5038918;28;20029;-47
2021/12/03 00:43:51;;;;;;;3.85;2.65;;;;;;;;;;5035804;28;20025;-48
2021/12/03 00:46:17;;;;;;;3.95;2.88;;;;;;;;;;5034057;28;20100;-45
2021/12/03 00:48:48;;;;;;;3.05;2.47;;;;;;;;;;5037580;28;20078;-46
2021/12/03 00:51:15;;;;;;;4.55;2.90;;;;;;;;;;5036187;28;20120;-47
2021/12/03 00:53:41;;;;;;;4.30;2.50;;;;;;;;;;5036829;28;20040;-47
2021/12/03 00:56:08;;;;;;;2.78;2.15;;;;;;;;;;5038254;28;20037;-47
2021/12/03 00:58:34;;;;;;;6.55;2.53;;;;;;;;;;5037821;28;20079;-47
2021/12/03 01:01:00;;;;;;;3.55;2.30;;;;;;;;;;5037501;28;20029;-49
2021/12/03 01:03:26;;;;;;;3.08;2.45;;;;;;;;;;5035264;28;20040;-46
2021/12/03 01:05:51;;;;;;;3.13;2.08;;;;;;;;;;5037030;28;20176;-46
2021/12/03 01:08:17;;;;;;;5.88;2.72;;;;;;;;;;5033861;28;20514;-46
2021/12/03 01:10:42;;;;;;;2.70;2.08;;;;;;;;;;5034507;28;20045;-46
2021/12/03 01:13:08;;;;;;;3.55;2.95;;;;;;;;;;5034307;28;20037;-46
2021/12/03 01:15:36;;;;;;;2.92;2.25;;;;;;;;;;5034159;28;20504;-44
2021/12/03 01:18:04;;;;;;;3.55;2.92;;;;;;;;;;5032766;28;20029;-45
2021/12/03 01:20:30;;;;;;;3.03;2.22;;;;;;;;;;5036623;28;20056;-46
2021/12/03 01:22:58;;;;;;;3.05;2.25;;;;;;;;;;5038411;28;20402;-45
2021/12/03 01:25:24;;;;;;;2.85;2.22;;;;;;;;;;5035573;28;20038;-46
2021/12/03 01:27:50;;;;;;;3.55;3.13;;;;;;;;;;5038117;28;20186;-45
2021/12/03 01:30:17;;;;;;;3.50;2.22;;;;;;;;;;5034317;28;20465;-44
2021/12/03 01:32:44;;;;;;;3.00;2.33;;;;;;;;;;5037006;28;20116;-46
2021/12/03 01:35:10;;;;;;;2.78;2.13;;;;;;;;;;5035849;28;20053;-46
2021/12/03 01:37:36;;;;;;;3.65;3.00;;;;;;;;;;5034810;28;20091;-45
2021/12/03 01:40:04;;;;;;;3.00;2.70;;;;;;;;;;5040081;28;20116;-45
2021/12/03 01:42:30;;;;;;;2.85;2.20;;;;;;;;;;5038250;28;20028;-44
2021/12/03 01:44:55;;;;;;;2.80;2.10;;;;;;;;;;5037154;28;20059;-44
2021/12/03 01:47:21;;;;;;;3.28;2.60;;;;;;;;;;5036499;28;20113;-47
2021/12/03 01:49:46;;;;;;;2.88;2.30;;;;;;;;;;5018100;28;20029;-45
2021/12/03 01:52:12;;;;;;;3.22;2.45;;;;;;;;;;5033998;28;20049;-44
2021/12/03 01:54:37;;;;;;;4.43;2.88;;;;;;;;;;5032070;28;20036;-44
2021/12/03 01:57:03;;;;;;;3.10;2.22;;;;;;;;;;5035485;28;20045;-47
2021/12/03 01:59:28;;;;;;;2.90;2.30;;;;;;;;;;5035161;28;20040;-47
2021/12/03 02:01:54;;;;;;;2.60;1.80;;;;;;;;;;5037743;28;20454;-45
2021/12/03 02:04:19;;;;;;;3.03;2.28;;;;;;;;;;5034059;28;20035;-44
2021/12/03 02:06:45;;;;;;;3.28;2.78;;;;;;;;;;5038292;28;20036;-46
2021/12/03 02:09:11;;;;;;;3.03;2.40;;;;;;;;;;5033358;28;20044;-44
2021/12/03 02:11:37;;;;;;;3.25;2.72;;;;;;;;;;5031676;28;20116;-45
2021/12/03 02:14:03;;;;;;;2.80;2.25;;;;;;;;;;5031363;28;20048;-44
2021/12/03 02:16:28;;;;;;;2.95;2.45;;;;;;;;;;5039382;28;20037;-44
2021/12/03 02:18:54;;;;;;;3.30;2.42;;;;;;;;;;5036563;28;20670;-45
2021/12/03 02:21:21;;;;;;;3.45;2.45;;;;;;;;;;5034573;28;20402;-47
2021/12/03 02:23:47;;;;;;;2.78;2.08;;;;;;;;;;5034887;28;20275;-44
2021/12/03 02:26:13;;;;;;;3.38;2.50;;;;;;;;;;5034348;28;20029;-48
2021/12/03 02:28:45;;;;;;;3.95;2.60;;;;;;;;;;5030011;28;20036;-45
2021/12/03 02:31:12;;;;;;;2.92;2.25;;;;;;;;;;5036724;28;20062;-44
2021/12/03 02:33:38;;;;;;;2.88;2.28;;;;;;;;;;5036539;28;20128;-45
2021/12/03 02:36:04;;;;;;;2.65;2.05;;;;;;;;;;5034195;28;20120;-45
2021/12/03 02:38:30;;;;;;;4.30;2.92;;;;;;;;;;5036366;28;20043;-45
2021/12/03 02:40:56;;;;;;;3.08;2.25;;;;;;;;;;5033293;28;20033;-45
2021/12/03 02:43:23;;;;;;;3.78;2.50;;;;;;;;;;5032193;28;20060;-44
2021/12/03 02:45:50;;;;;;;2.50;1.85;;;;;;;;;;5035168;28;20079;-46
2021/12/03 02:48:16;;;;;;;2.70;2.28;;;;;;;;;;5034459;28;20033;-49
2021/12/03 02:50:41;;;;;;;4.07;2.88;;;;;;;;;;5032627;28;20340;-46
2021/12/03 02:53:07;;;;;;;2.90;2.28;;;;;;;;;;5037031;28;20041;-47
2021/12/03 02:55:32;;;;;;;4.55;3.38;;;;;;;;;;5037771;28;20091;-47
2021/12/03 02:57:58;;;;;;;3.63;3.13;;;;;;;;;;5035698;28;20352;-45
2021/12/03 03:00:26;;;;;;;3.05;2.55;;;;;;;;;;5032545;28;20037;-45
2021/12/03 03:02:52;;;;;;;3.03;2.65;;;;;;;;;;5032295;28;20034;-49
2021/12/03 03:05:19;;;;;;;3.65;2.53;;;;;;;;;;5034134;28;20441;-49
2021/12/03 03:07:46;;;;;;;3.65;2.95;;;;;;;;;;5034496;28;20030;-46
2021/12/03 03:10:14;;;;;;;4.03;3.10;;;;;;;;;;5035131;28;20065;-45
2021/12/03 03:12:42;;;;;;;4.25;3.40;;;;;;;;;;5033946;28;20037;-46
2021/12/03 03:15:09;;;;;;;3.60;3.17;;;;;;;;;;5036163;28;20104;-45
2021/12/03 03:17:34;;;;;;;3.72;3.30;;;;;;;;;;5033863;28;20034;-46
2021/12/03 03:20:01;;;;;;;3.80;3.08;;;;;;;;;;5035015;28;20048;-45
2021/12/03 03:22:26;;;;;;;4.28;2.88;;;;;;;;;;5034123;28;20060;-45
2021/12/03 03:24:54;;;;;;;4.97;3.78;;;;;;;;;;5035627;28;20029;-44
2021/12/03 03:27:21;;;;;;;5.00;4.07;;;;;;;;;;5033788;28;20040;-45
2021/12/03 03:29:48;;;;;;;4.47;2.90;;;;;;;;;;5032694;28;20051;-45
2021/12/03 03:32:15;;;;;;;4.72;3.40;;;;;;;;;;5035717;28;20460;-44
2021/12/03 03:34:41;;;;;;;3.70;2.83;;;;;;;;;;5033496;28;20036;-45
2021/12/03 03:37:07;;;;;;;4.40;3.95;;;;;;;;;;5035746;28;20034;-45
2021/12/03 03:39:33;;;;;;;4.80;4.13;;;;;;;;;;5030062;28;20025;-45
2021/12/03 03:41:58;;;;;;;5.00;3.75;;;;;;;;;;5034228;28;20498;-45
2021/12/03 03:44:24;;;;;;;3.80;3.05;;;;;;;;;;5035151;28;20044;-45
2021/12/03 03:46:51;;;;;;;3.40;2.83;;;;;;;;;;5036291;28;20026;-46
2021/12/03 03:49:18;;;;;;;3.30;2.72;;;;;;;;;;5036858;28;20116;-45
2021/12/03 03:51:43;;;;;;;4.15;3.47;;;;;;;;;;5033854;28;20541;-46
2021/12/03 03:54:09;;;;;;;3.85;3.08;;;;;;;;;;5034684;28;20109;-45
2021/12/03 03:56:34;;;;;;;4.22;3.60;;;;;;;;;;5035075;28;20079;-45
2021/12/03 03:59:00;;;;;;;3.22;2.92;;;;;;;;;;5035065;28;20037;-45
2021/12/03 04:01:26;;;;;;;3.45;2.95;;;;;;;;;;5035744;28;20072;-44
2021/12/03 04:03:52;;;;;;;4.95;4.25;;;;;;;;;;5036438;28;20044;-45
2021/12/03 04:06:18;;;;;;;3.78;3.38;;;;;;;;;;5040178;28;20029;-45
2021/12/03 04:08:45;;;;;;;3.97;3.22;;;;;;;;;;5039740;28;20429;-46
2021/12/03 04:11:13;;;;;;;10.77;2.80;;;;;;;;;;5041538;28;20029;-44
2021/12/03 04:13:39;;;;;;;3.63;3.00;;;;;;;;;;5038179;28;20112;-45
2021/12/03 04:16:05;;;;;;;3.20;2.78;;;;;;;;;;5038912;28;20585;-45
2021/12/03 04:18:30;;;;;;;4.32;3.17;;;;;;;;;;5042283;28;20033;-45
2021/12/03 04:20:56;;;;;;;3.70;3.30;;;;;;;;;;5037485;28;20379;-45
2021/12/03 04:23:22;;;;;;;3.45;2.97;;;;;;;;;;5035239;28;20425;-44
2021/12/03 04:25:48;;;;;;;3.53;2.97;;;;;;;;;;5034514;28;20017;-48
2021/12/03 04:28:15;;;;;;;3.85;3.17;;;;;;;;;;5035524;28;20095;-44
2021/12/03 04:30:41;;;;;;;3.90;2.80;;;;;;;;;;5034051;28;20029;-45
2021/12/03 04:33:07;;;;;;;3.50;3.00;;;;;;;;;;5036404;28;20435;-48
2021/12/03 04:35:33;;;;;;;5.97;3.15;;;;;;;;;;5035908;28;20348;-44
2021/12/03 04:37:59;;;;;;;3.10;2.72;;;;;;;;;;5036046;28;20805;-47
2021/12/03 04:40:26;;;;;;;5.15;3.05;;;;;;;;;;5039086;28;20529;-45
2021/12/03 04:42:52;;;;;;;4.35;3.45;;;;;;;;;;5035460;28;20034;-44
2021/12/03 04:45:20;;;;;;;3.97;3.00;;;;;;;;;;5040098;28;20025;-44
2021/12/03 04:47:48;;;;;;;2.90;2.50;;;;;;;;;;5038483;28;20031;-45
2021/12/03 04:50:14;;;;;;;3.63;2.85;;;;;;;;;;5037970;28;20041;-44
2021/12/03 04:52:40;;;;;;;3.80;3.00;;;;;;;;;;5038321;28;20037;-44
2021/12/03 04:55:07;;;;;;;3.63;2.83;;;;;;;;;;5033996;28;20063;-44
2021/12/03 04:57:33;;;;;;;3.92;2.85;;;;;;;;;;5035415;28;20352;-44
2021/12/03 04:59:58;;;;;;;3.28;2.38;;;;;;;;;;5037896;28;20029;-45
2021/12/03 05:02:25;;;;;;;2.90;2.50;;;;;;;;;;5035268;28;20619;-44
2021/12/03 05:04:52;;;;;;;3.88;2.80;;;;;;;;;;5035039;28;20079;-44
2021/12/03 05:07:29;;;;;;;3.45;2.63;;;;;;;;;;5038814;28;20084;-44
2021/12/03 05:09:55;;;;;;;4.03;2.83;;;;;;;;;;5035967;28;20028;-44
2021/12/03 05:12:21;;;;;;;3.63;2.70;;;;;;;;;;5034410;28;20430;-45
2021/12/03 05:14:47;;;;;;;5.25;3.70;;;;;;;;;;5034078;28;20374;-44
2021/12/03 05:17:12;;;;;;;3.30;2.70;;;;;;;;;;5039384;28;20025;-47
2021/12/03 05:19:37;;;;;;;13.88;3.95;;;;;;;;;;5033787;28;20475;-44
2021/12/03 05:22:03;;;;;;;5.18;3.97;;;;;;;;;;5036331;28;20041;-43
2021/12/03 05:24:29;;;;;;;3.15;2.50;;;;;;;;;;5037622;28;20033;-45
2021/12/03 05:26:54;;;;;;;4.55;3.42;;;;;;;;;;5038507;28;20025;-45
2021/12/03 05:29:20;;;;;;;3.38;2.80;;;;;;;;;;5036888;28;20041;-44
2021/12/03 05:31:45;;;;;;;3.92;3.03;;;;;;;;;;5033501;28;20029;-45
2021/12/03 05:34:13;;;;;;;2.92;2.45;;;;;;;;;;5034536;28;20124;-45
2021/12/03 05:36:39;;;;;;;3.25;2.55;;;;;;;;;;5033597;28;20030;-44
2021/12/03 05:39:05;;;;;;;2.80;2.30;;;;;;;;;;5036282;28;20025;-44
2021/12/03 05:41:32;;;;;;;2.85;2.35;;;;;;;;;;5033676;28;20446;-44
2021/12/03 05:43:58;;;;;;;4.22;2.40;;;;;;;;;;5035484;28;20037;-45
2021/12/03 05:46:23;;;;;;;2.83;2.20;;;;;;;;;;5031918;28;20082;-44
2021/12/03 05:48:49;;;;;;;2.85;2.35;;;;;;;;;;5035838;28;20049;-48
2021/12/03 05:51:14;;;;;;;4.65;2.85;;;;;;;;;;5031485;28;20032;-45
2021/12/03 05:53:39;;;;;;;13.80;2.85;;;;;;;;;;5039490;28;20124;-44
2021/12/03 05:56:05;;;;;;;3.25;2.67;;;;;;;;;;5038014;28;20033;-44
2021/12/03 05:58:30;;;;;;;3.45;2.30;;;;;;;;;;5033333;28;20037;-44
2021/12/03 06:00:56;;;;;;;3.55;3.13;;;;;;;;;;5032265;28;20036;-44
2021/12/03 06:03:21;;;;;;;3.85;3.33;;;;;;;;;;5034803;28;20042;-45
2021/12/03 06:05:47;;;;;;;4.13;3.42;;;;;;;;;;5034536;28;20451;-43
2021/12/03 06:08:12;;;;;;;3.78;3.10;;;;;;;;;;5035606;28;20025;-48
2021/12/03 06:10:38;;;;;;;2.95;2.42;;;;;;;;;;5034792;28;20037;-48
2021/12/03 06:13:03;;;;;;;4.15;3.20;;;;;;;;;;5035639;28;20033;-46
2021/12/03 06:15:29;;;;;;;4.15;2.88;;;;;;;;;;5034558;28;20064;-45
2021/12/03 06:17:55;;;;;;;4.43;2.58;;;;;;;;;;5032312;28;20029;-48
2021/12/03 06:20:21;;;;;;;3.55;2.67;;;;;;;;;;5032469;28;20052;-46
2021/12/03 06:22:47;;;;;;;3.75;2.90;;;;;;;;;;5032762;28;20033;-44
2021/12/03 06:25:13;;;;;;;3.20;2.50;;;;;;;;;;5037027;28;20044;-45
2021/12/03 06:27:40;;;;;;;3.00;2.65;;;;;;;;;;5035097;28;20021;-48
2021/12/03 06:30:17;;;;;;;4.25;3.20;;;;;;;;;;5034089;28;20036;-47
2021/12/03 06:32:43;;;;;;;3.88;3.28;;;;;;;;;;5036068;28;20459;-46
2021/12/03 06:35:11;;;;;;;3.33;2.75;;;;;;;;;;5036233;28;20044;-44
2021/12/03 06:37:37;;;;;;;3.78;2.72;;;;;;;;;;5032197;28;20123;-44
2021/12/03 06:40:05;;;;;;;4.63;3.38;;;;;;;;;;5033465;28;20417;-47
2021/12/03 06:42:31;;;;;;;4.28;2.95;;;;;;;;;;5033293;28;20357;-44
2021/12/03 06:44:56;;;;;;;3.63;2.83;;;;;;;;;;5033236;28;20120;-44
2021/12/03 06:47:22;;;;;;;3.83;2.85;;;;;;;;;;5031792;28;20422;-44
2021/12/03 06:49:47;;;;;;;6.10;3.90;;;;;;;;;;5031907;28;20036;-45
2021/12/03 06:52:15;;;;;;;3.95;3.13;;;;;;;;;;5030107;28;20091;-46
2021/12/03 06:54:41;;;;;;;3.20;2.70;;;;;;;;;;5034614;28;20126;-44
2021/12/03 06:57:08;;;;;;;3.42;2.78;;;;;;;;;;5035846;28;20033;-45
2021/12/03 06:59:36;;;;;;;4.35;3.58;;;;;;;;;;5030311;28;20098;-45
2021/12/03 07:02:02;;;;;;;4.30;2.85;;;;;;;;;;5034711;28;20048;-44
2021/12/03 07:04:27;;;;;;;4.35;3.28;;;;;;;;;;5033803;28;20037;-45
2021/12/03 07:06:53;;;;;;;3.88;3.25;;;;;;;;;;5034914;28;20043;-49
2021/12/03 07:09:19;;;;;;;3.67;2.95;;;;;;;;;;5034147;28;20183;-45
2021/12/03 07:11:45;;;;;;;3.80;3.17;;;;;;;;;;5032845;28;20485;-45
2021/12/03 07:14:11;;;;;;;3.72;2.88;;;;;;;;;;5032952;28;20041;-44
2021/12/03 07:16:36;;;;;;;4.25;3.60;;;;;;;;;;5037495;28;20075;-46
2021/12/03 07:19:03;;;;;;;3.88;3.05;;;;;;;;;;5032416;28;20390;-45
2021/12/03 07:21:28;;;;;;;4.05;3.25;;;;;;;;;;5029652;28;20133;-45
2021/12/03 07:23:54;;;;;;;3.45;2.83;;;;;;;;;;5032843;28;20151;-45
2021/12/03 07:26:22;;;;;;;3.60;3.17;;;;;;;;;;5037586;28;20033;-48
2021/12/03 07:28:48;;;;;;;4.88;3.42;;;;;;;;;;5034778;28;20630;-45
2021/12/03 07:31:14;;;;;;;3.70;3.08;;;;;;;;;;5033427;28;20208;-46
2021/12/03 07:33:40;;;;;;;3.97;2.78;;;;;;;;;;5035662;28;20580;-46
2021/12/03 07:36:06;;;;;;;4.00;2.67;;;;;;;;;;5034649;28;20028;-44
2021/12/03 07:38:32;;;;;;;3.35;3.05;;;;;;;;;;5037522;28;20048;-44
2021/12/03 07:40:58;;;;;;;3.45;2.70;;;;;;;;;;5040578;28;20080;-46
2021/12/03 07:43:23;;;;;;;3.80;3.45;;;;;;;;;;5034364;28;20068;-44
2021/12/03 07:45:49;;;;;;;2.53;1.90;;;;;;;;;;5035352;28;20165;-46
2021/12/03 07:48:15;;;;;;;3.63;3.10;;;;;;;;;;5038333;28;20172;-45
2021/12/03 07:50:41;;;;;;;3.88;2.75;;;;;;;;;;5039520;28;20029;-44
2021/12/03 07:53:09;;;;;;;4.72;3.75;;;;;;;;;;5037939;28;20385;-46
2021/12/03 07:55:35;;;;;;;3.92;2.80;;;;;;;;;;5038701;28;20040;-46
2021/12/03 07:58:04;;;;;;;4.13;3.10;;;;;;;;;;5037974;28;20131;-47
2021/12/03 08:00:30;;;;;;;3.35;2.78;;;;;;;;;;5037522;28;20040;-48
2021/12/03 08:02:55;;;;;;;4.07;3.35;;;;;;;;;;5036151;28;20033;-48
2021/12/03 08:05:20;;;;;;;3.72;3.22;;;;;;;;;;5037329;28;20513;-44
2021/12/03 08:07:47;;;;;;;3.65;3.35;;;;;;;;;;5036712;28;20033;-44
2021/12/03 08:10:14;;;;;;;3.67;3.10;;;;;;;;;;5039550;28;20041;-45
2021/12/03 08:12:41;;;;;;;5.63;3.28;;;;;;;;;;5038460;28;20037;-45
2021/12/03 08:15:07;;;;;;;4.03;3.03;;;;;;;;;;5038010;28;20043;-44
2021/12/03 08:17:33;;;;;;;3.33;2.75;;;;;;;;;;5018019;28;20029;-44
2021/12/03 08:19:58;;;;;;;3.85;3.05;;;;;;;;;;5034728;28;20481;-44
2021/12/03 08:22:24;;;;;;;4.07;3.17;;;;;;;;;;5039373;28;20076;-46
2021/12/03 08:24:49;;;;;;;3.17;2.63;;;;;;;;;;5035486;28;20025;-44
2021/12/03 08:27:15;;;;;;;4.15;3.28;;;;;;;;;;5035547;28;20037;-48
2021/12/03 08:29:40;;;;;;;4.60;3.05;;;;;;;;;;5037772;28;20367;-45
2021/12/03 08:32:06;;;;;;;4.65;2.85;;;;;;;;;;5037353;28;20113;-45
2021/12/03 08:34:31;;;;;;;4.40;3.35;;;;;;;;;;5033044;28;20060;-45
2021/12/03 08:36:57;;;;;;;3.45;3.08;;;;;;;;;;5037561;28;20069;-48
2021/12/03 08:39:22;;;;;;;4.55;3.17;;;;;;;;;;5036263;28;20029;-48
2021/12/03 08:41:48;;;;;;;5.75;4.03;;;;;;;;;;5033424;28;20060;-49
2021/12/03 08:44:14;;;;;;;4.53;3.58;;;;;;;;;;5034911;28;20049;-48
2021/12/03 08:46:40;;;;;;;3.85;3.22;;;;;;;;;;5036829;28;20029;-48
2021/12/03 08:49:12;;;;;;;6.65;2.92;;;;;;;;;;5038007;28;20036;-44
2021/12/03 08:56:50;;;;;;;8.05;2.75;;;;;;;;;;5036232;28;20037;-46
2021/12/03 08:59:16;;;;;;;3.63;3.15;;;;;;;;;;5036359;28;20472;-45
2021/12/03 09:01:43;;;;;;;3.53;2.83;;;;;;;;;;5035829;28;20033;-48
2021/12/03 09:04:09;;;;;;;4.32;3.78;;;;;;;;;;5035408;28;20025;-49
2021/12/03 09:06:35;;;;;;;7.03;3.95;;;;;;;;;;5035617;28;20486;-45
2021/12/03 09:09:00;;;;;;;4.10;2.80;;;;;;;;;;5035796;28;20579;-45
2021/12/03 09:11:27;;;;;;;4.40;3.30;;;;;;;;;;5034530;28;20033;-50
2021/12/03 09:13:53;;;;;;;4.15;3.13;;;;;;;;;;5034933;28;20033;-45
2021/12/03 09:16:21;;;;;;;3.72;3.25;;;;;;;;;;5037855;28;20040;-46
2021/12/03 09:18:47;;;;;;;5.32;3.95;;;;;;;;;;5037332;28;20057;-45
2021/12/03 09:21:17;;;;;;;6.18;3.80;;;;;;;;;;5038238;28;20037;-46
2021/12/03 09:26:16;;;;;;;4.30;3.42;;;;;;;;;;5031826;28;20119;-46
2021/12/03 09:28:45;;;;;;;4.93;3.10;;;;;;;;;;5033947;28;20040;-47
2021/12/03 09:31:11;;;;;;;5.55;4.00;;;;;;;;;;5034662;28;20041;-48
2021/12/03 09:33:40;;;;;;;7.28;3.72;;;;;;;;;;5034701;28;20037;-46
2021/12/03 09:36:07;;;;;;;4.22;3.03;;;;;;;;;;5035014;28;20036;-47
2021/12/03 09:38:34;;;;;;;4.35;3.53;;;;;;;;;;5040117;28;20029;-47
2021/12/03 09:41:07;;;;;;;3.67;2.92;;;;;;;;;;5036389;28;20463;-45
2021/12/03 09:43:34;;;;;;;4.95;3.40;;;;;;;;;;5031549;28;20034;-46
2021/12/03 09:46:13;;;;;;;4.93;3.50;;;;;;;;;;5035240;28;20154;-46
2021/12/03 09:51:17;;;;;;;5.88;4.00;;;;;;;;;;5035394;28;20091;-47
2021/12/03 09:56:28;;;;;;;3.65;2.83;;;;;;;;;;5037180;28;20058;-45
2021/12/03 10:01:55;;;;;;;8.32;3.50;;;;;;;;;;5034903;28;20041;-46
2021/12/03 10:05:05;;;;;;;4.15;3.42;;;;;;;;;;5036272;28;20029;-45
2021/12/03 10:13:06;;;;;;;3.72;2.92;;;;;;;;;;5035663;28;20029;-45
2021/12/03 10:15:37;;;;;;;4.20;3.58;;;;;;;;;;5033456;28;20059;-45
2021/12/03 10:18:19;;;;;;;4.15;2.58;;;;;;;;;;5036871;28;20048;-44
2021/12/03 10:21:03;;;;;;;6.15;3.45;;;;;;;;;;5035203;28;20128;-44
2021/12/03 10:37:38;;;;;;;4.53;3.38;;;;;;;;;;5036359;28;20043;-47
2021/12/03 10:43:20;;;;;;;2.85;2.47;;;;;;;;;;5031833;28;20306;-44
2021/12/03 10:54:07;;;;;;;3.03;2.42;;;;;;;;;;5035686;28;20077;-43
2021/12/03 10:57:03;;;;;;;3.00;2.47;;;;;;;;;;5034298;28;20399;-44
2021/12/03 11:27:28;;;;;;;3.28;2.35;;;;;;;;;;5033774;28;20534;-44
2021/12/03 11:43:17;;;;;;;7.05;2.85;;;;;;;;;;5035386;28;20534;-45
2021/12/03 11:52:44;;;;;;;2.95;2.22;;;;;;;;;;5036772;28;20048;-46
2021/12/03 12:35:38;;;;;;;3.10;2.55;;;;;;;;;;5034239;28;20853;-46
2021/12/03 13:09:06;;;;;;;5.53;4.03;;;;;;;;;;5034863;28;20029;-53
2021/12/03 13:22:46;;;;;;;3.13;2.65;;;;;;;;;;5032895;28;20534;-51
2021/12/03 13:25:45;;;;;;;;;;;;;;;;;;5031572;28;20057;-50
2021/12/03 13:37:16;;;;;;;4.55;3.65;;;;;;;;;;5032681;28;20053;-52
2021/12/03 13:39:55;;;;;;;3.47;2.58;;;;;;;;;;5037437;28;20120;-50
2021/12/03 14:01:30;;;;;;;3.25;2.42;;;;;;;;;;5035897;28;20044;-52
2021/12/03 14:09:30;;;;;;;3.70;2.50;;;;;;;;;;5035749;28;20036;-53
2021/12/03 14:24:15;;;;;;;3.08;2.55;;;;;;;;;;5036255;28;20036;-53
2021/12/03 14:38:37;;;;;;;3.10;2.45;;;;;;;;;;5035594;28;20029;-53
2021/12/03 14:41:11;;;;;;;4.15;2.60;;;;;;;;;;5034792;28;20039;-53
2021/12/03 14:44:04;;;;;;;3.00;2.35;;;;;;;;;;5034420;28;20037;-52
2021/12/03 14:46:45;;;;;;;3.53;2.88;;;;;;;;;;5039484;28;20141;-52
2021/12/03 14:49:34;;;;;;;4.30;2.73;;;;;;;;;;5033318;28;20112;-52
2021/12/03 14:59:55;;;;;;;3.88;2.92;;;;;;;;;;5032638;28;20709;-51
2021/12/03 15:02:38;;;;;;;9.90;3.33;;;;;;;;;;5035102;28;20044;-50
2021/12/03 15:05:19;;;;;;;2.90;2.40;;;;;;;;;;5033939;28;20044;-53
2021/12/03 15:07:49;;;;;;;2.90;2.30;;;;;;;;;;5035890;28;20466;-49
2021/12/03 15:13:24;;;;;;;3.25;2.75;;;;;;;;;;4999310;28;20137;-50
2021/12/03 15:18:54;;;;;;;2.72;2.25;;;;;;;;;;5036819;28;20033;-52
2021/12/03 15:21:33;;;;;;;3.17;2.50;;;;;;;;;;5033186;28;20041;-52
2021/12/03 15:27:17;;;;;;;2.80;2.35;;;;;;;;;;5029835;28;20033;-52
2021/12/03 15:56:34;;;;;;;2.97;2.03;;;;;;;;;;5032581;28;20040;-52
2021/12/03 16:09:10;;;;;;;2.63;1.98;;;;;;;;;;5037945;28;20036;-52
2021/12/03 16:11:39;;;;;;;3.13;2.38;;;;;;;;;;5034941;28;20037;-51
2021/12/03 16:16:51;;;;;;;3.08;2.55;;;;;;;;;;5038832;28;20128;-53
2021/12/03 16:24:44;;;;;;;2.90;2.30;;;;;;;;;;5041899;28;20087;-50
2021/12/03 16:54:10;;;;;;;3.42;2.50;;;;;;;;;;5039099;28;20033;-50
2021/12/03 16:56:43;;;;;;;3.47;2.47;;;;;;;;;;5038393;28;20087;-48
2021/12/03 16:59:09;;;;;;;3.78;2.97;;;;;;;;;;5041688;28;20046;-52
2021/12/03 17:01:51;;;;;;;3.80;2.70;;;;;;;;;;5034718;28;20033;-53
2021/12/03 17:12:36;;;;;;;3.80;3.10;;;;;;;;;;5034416;28;20033;-49
2021/12/03 17:23:36;;;;;;;3.22;2.88;;;;;;;;;;5037153;28;20040;-50
2021/12/03 17:29:21;;;;;;;3.33;2.83;;;;;;;;;;5037292;28;20033;-49
2021/12/03 17:44:30;;;;;;;2.95;2.47;;;;;;;;;;5038989;28;20033;-46
2021/12/03 17:48:24;;;;;;;4.40;3.75;;;;;;;;;;5038978;28;20520;-46
2021/12/03 17:59:34;;;;;;;5.78;3.30;;;;;;;;;;5034523;28;20029;-48
2021/12/03 18:01:32;;;;;;;3.78;2.63;;;;;;;;;;5034271;28;20041;-47
2021/12/03 18:09:28;;;;;;;4.57;3.08;;;;;;;;;;5036291;28;20421;-49
2021/12/03 18:17:35;;;;;;;3.85;3.15;;;;;;;;;;5035441;28;20049;-49
2021/12/03 18:47:42;;;;;;;4.13;3.72;;;;;;;;;;5033730;28;20087;-49
2021/12/03 18:55:33;;;;;;;3.58;3.17;;;;;;;;;;5038166;28;20081;-50
2021/12/03 18:58:02;;;;;;;3.95;2.88;;;;;;;;;;5036196;28;20085;-50
2021/12/03 19:00:31;;;;;;;3.58;3.15;;;;;;;;;;5031918;28;20055;-51
2021/12/03 19:03:00;;;;;;;3.85;3.08;;;;;;;;;;5034611;28;20033;-48
2021/12/03 19:05:48;;;;;;;3.40;2.83;;;;;;;;;;5034468;28;20091;-47
2021/12/03 19:08:39;;;;;;;5.72;3.13;;;;;;;;;;5036262;28;20029;-48
2021/12/03 19:11:10;;;;;;;3.22;2.60;;;;;;;;;;5036073;28;20135;-48
2021/12/03 19:13:38;;;;;;;4.25;3.25;;;;;;;;;;5034512;28;20359;-47
2021/12/03 19:16:09;;;;;;;3.10;2.60;;;;;;;;;;5032515;28;20043;-48
2021/12/03 19:18:35;;;;;;;2.95;2.35;;;;;;;;;;5034779;28;20057;-46
2021/12/03 19:21:06;;;;;;;3.42;2.92;;;;;;;;;;5034834;28;20517;-48
2021/12/03 19:23:31;;;;;;;3.55;2.80;;;;;;;;;;5036300;28;20044;-48
2021/12/03 19:25:56;;;;;;;6.07;3.80;;;;;;;;;;5036820;28;20211;-46
2021/12/03 19:28:22;;;;;;;3.50;2.97;;;;;;;;;;5031526;28;20033;-48
2021/12/03 19:30:47;;;;;;;4.55;3.65;;;;;;;;;;5033483;28;20095;-46
2021/12/03 19:33:13;;;;;;;7.22;3.35;;;;;;;;;;5037080;28;20553;-48
2021/12/03 19:35:39;;;;;;;3.10;2.60;;;;;;;;;;5036816;28;20067;-47
2021/12/03 19:38:05;;;;;;;3.47;2.88;;;;;;;;;;5036617;28;20467;-48
2021/12/03 19:40:35;;;;;;;3.90;3.13;;;;;;;;;;5035028;28;20410;-46
2021/12/03 19:43:09;;;;;;;4.53;3.58;;;;;;;;;;5038001;28;20026;-45
2021/12/03 19:45:43;;;;;;;3.42;3.05;;;;;;;;;;5038210;28;20082;-47
2021/12/03 19:48:12;;;;;;;5.68;3.70;;;;;;;;;;5036529;28;20022;-46
2021/12/03 19:53:16;;;;;;;4.07;2.83;;;;;;;;;;5040114;28;20045;-54
2021/12/03 19:55:44;;;;;;;3.47;2.85;;;;;;;;;;5036227;28;20076;-53
2021/12/03 19:58:11;;;;;;;3.33;2.80;;;;;;;;;;5035377;28;20268;-54
2021/12/03 20:00:37;;;;;;;4.38;2.67;;;;;;;;;;5040041;28;20086;-52
2021/12/03 20:03:03;;;;;;;4.43;2.90;;;;;;;;;;5036799;28;20074;-50
2021/12/03 20:05:29;;;;;;;4.25;3.38;;;;;;;;;;5035663;28;20371;-52
2021/12/03 20:07:56;;;;;;;4.30;3.90;;;;;;;;;;5040892;28;20061;-54
2021/12/03 20:10:24;;;;;;;4.35;3.72;;;;;;;;;;5036620;28;20029;-52
2021/12/03 20:12:51;;;;;;;3.75;2.78;;;;;;;;;;5037899;28;20056;-50
2021/12/03 20:15:29;;;;;;;3.78;2.95;;;;;;;;;;5035556;28;20044;-51
2021/12/03 20:18:06;;;;;;;3.30;2.85;;;;;;;;;;5040323;28;20033;-50
2021/12/03 20:20:31;;;;;;;3.33;2.55;;;;;;;;;;5038281;28;20603;-50
2021/12/03 20:23:05;;;;;;;3.97;3.47;;;;;;;;;;5034819;28;20030;-53
2021/12/03 20:38:15;;;;;;;4.22;3.13;;;;;;;;;;5039845;28;20064;-54
2021/12/03 20:40:40;;;;;;;5.30;3.15;;;;;;;;;;5036365;28;20030;-52
2021/12/03 20:48:12;;;;;;;5.15;3.70;;;;;;;;;;5039633;28;20068;-48
2021/12/03 21:09:35;;;;;;;4.55;3.35;;;;;;;;;;5035861;28;20082;-54
2021/12/03 21:12:04;;;;;;;3.30;3.00;;;;;;;;;;5038802;28;20037;-50
2021/12/03 21:14:32;;;;;;;6.93;3.00;;;;;;;;;;5035775;28;20116;-52
2021/12/03 21:17:25;;;;;;;2.83;2.50;;;;;;;;;;5034696;28;20091;-51
2021/12/03 21:20:00;;;;;;;3.63;2.83;;;;;;;;;;5036841;28;20043;-51
2021/12/03 21:22:30;;;;;;;3.38;3.05;;;;;;;;;;5037581;28;20029;-50
2021/12/03 21:24:59;;;;;;;3.85;3.35;;;;;;;;;;5038302;28;20041;-51
2021/12/03 21:27:33;;;;;;;4.88;2.63;;;;;;;;;;5036372;28;20415;-53
2021/12/03 21:30:12;;;;;;;5.43;3.40;;;;;;;;;;5035900;28;20029;-50
2021/12/03 21:43:14;;;;;;;3.88;2.95;;;;;;;;;;5046247;28;20152;-52
2021/12/03 21:45:40;;;;;;;3.88;2.90;;;;;;;;;;5035864;28;20061;-53
2021/12/03 21:48:05;;;;;;;5.25;3.65;;;;;;;;;;5036259;28;20071;-51
2021/12/03 21:50:31;;;;;;;3.30;3.00;;;;;;;;;;5033542;28;20029;-51
2021/12/03 21:52:56;;;;;;;3.00;2.65;;;;;;;;;;5035637;28;20044;-54
2021/12/03 21:55:23;;;;;;;4.07;3.17;;;;;;;;;;5037636;28;20098;-53
2021/12/03 21:57:49;;;;;;;3.47;2.80;;;;;;;;;;5034739;28;20108;-53
2021/12/03 22:00:15;;;;;;;2.90;2.42;;;;;;;;;;5034929;28;20394;-51
2021/12/03 22:02:41;;;;;;;3.33;2.88;;;;;;;;;;5034311;28;20398;-54
2021/12/03 22:05:07;;;;;;;3.45;3.15;;;;;;;;;;5032143;28;20026;-54
2021/12/03 22:07:32;;;;;;;3.42;2.75;;;;;;;;;;5035815;28;20378;-52
2021/12/03 22:09:57;;;;;;;2.90;2.38;;;;;;;;;;5036601;28;20041;-52
2021/12/03 22:12:23;;;;;;;3.05;2.50;;;;;;;;;;5035582;28;20038;-52
2021/12/03 22:14:48;;;;;;;2.88;2.30;;;;;;;;;;5034993;28;20467;-53
2021/12/03 22:17:13;;;;;;;3.20;2.38;;;;;;;;;;5035479;28;20049;-50
2021/12/03 22:19:39;;;;;;;3.28;2.60;;;;;;;;;;5037782;28;20458;-51
2021/12/03 22:22:06;;;;;;;3.22;2.85;;;;;;;;;;5034403;28;20120;-52
2021/12/03 22:24:32;;;;;;;3.33;2.95;;;;;;;;;;5038625;28;20076;-53
2021/12/03 22:26:57;;;;;;;3.28;2.80;;;;;;;;;;5041504;28;20477;-50
2021/12/03 22:29:23;;;;;;;2.97;2.58;;;;;;;;;;5035323;28;20147;-50